sensor_id;sensor_type;location;lat;lon;timestamp;temperature;humidity
21033;DHT22;10675;47.976;7.824;2022-12-08T00:02:17;1.20;99.90
21033;DHT22;10675;47.976;7.824;2022-12-08T00:04:43;1.10;99.90
21033;DHT22;10675;47.976;7.824;2022-12-08T00:07:27;1.00;99.90
21033;DHT22;10675;47.976;7.824;2022-12-08T00:10:11;1.00;99.90
21033;DHT22;10675;47.976;7.824;2022-12-08T00:12:36;0.90;99.90
21033;DHT22;10675;47.976;7.824;2022-12-08T00:15:02;0.90;99.90
21033;DHT22;10675;47.976;7.824;2022-12-08T00:17:28;0.80;99.90
21033;DHT22;10675;47.976;7.824;2022-12-08T00:19:53;0.90;99.90
21033;DHT22;10675;47.976;7.824;2022-12-08T00:22:19;0.90;99.90
21033;DHT22;10675;47.976;7.824;2022-12-08T00:24:45;0.90;99.90
21033;DHT22;10675;47.976;7.824;2022-12-08T00:27:12;0.90;99.90
21033;DHT22;10675;47.976;7.824;2022-12-08T00:29:38;0.80;99.90
21033;DHT22;10675;47.976;7.824;2022-12-08T00:32:05;0.70;99.90
21033;DHT22;10675;47.976;7.824;2022-12-08T00:34:31;0.70;99.90
21033;DHT22;10675;47.976;7.824;2022-12-08T00:36:57;0.70;99.90
21033;DHT22;10675;47.976;7.824;2022-12-08T00:39:23;0.60;99.90
21033;DHT22;10675;47.976;7.824;2022-12-08T00:41:49;0.60;99.90
21033;DHT22;10675;47.976;7.824;2022-12-08T00:44:33;0.60;99.90
21033;DHT22;10675;47.976;7.824;2022-12-08T00:46:58;0.60;99.90
21033;DHT22;10675;47.976;7.824;2022-12-08T00:49:24;0.60;99.90
21033;DHT22;10675;47.976;7.824;2022-12-08T00:51:49;0.60;99.90
21033;DHT22;10675;47.976;7.824;2022-12-08T00:54:16;0.60;99.90
21033;DHT22;10675;47.976;7.824;2022-12-08T00:56:41;0.60;99.90
21033;DHT22;10675;47.976;7.824;2022-12-08T00:59:07;0.60;99.90
21033;DHT22;10675;47.976;7.824;2022-12-08T01:01:33;0.70;99.90
21033;DHT22;10675;47.976;7.824;2022-12-08T01:04:04;0.60;99.90
21033;DHT22;10675;47.976;7.824;2022-12-08T01:06:29;0.60;99.90
21033;DHT22;10675;47.976;7.824;2022-12-08T01:08:55;0.60;99.90
21033;DHT22;10675;47.976;7.824;2022-12-08T01:11:21;0.60;99.90
21033;DHT22;10675;47.976;7.824;2022-12-08T01:13:47;0.60;99.90
21033;DHT22;10675;47.976;7.824;2022-12-08T01:16:24;0.50;99.90
21033;DHT22;10675;47.976;7.824;2022-12-08T01:18:50;0.60;99.90
21033;DHT22;10675;47.976;7.824;2022-12-08T01:21:16;0.60;99.90
21033;DHT22;10675;47.976;7.824;2022-12-08T01:23:42;0.60;99.90
21033;DHT22;10675;47.976;7.824;2022-12-08T01:26:11;0.50;99.90
21033;DHT22;10675;47.976;7.824;2022-12-08T01:28:37;0.50;99.90
21033;DHT22;10675;47.976;7.824;2022-12-08T01:31:03;0.50;99.90
21033;DHT22;10675;47.976;7.824;2022-12-08T01:33:29;0.50;99.90
21033;DHT22;10675;47.976;7.824;2022-12-08T01:35:55;0.50;99.90
21033;DHT22;10675;47.976;7.824;2022-12-08T01:38:21;0.50;99.90
21033;DHT22;10675;47.976;7.824;2022-12-08T01:40:47;0.50;99.90
21033;DHT22;10675;47.976;7.824;2022-12-08T01:43:15;0.50;99.90
21033;DHT22;10675;47.976;7.824;2022-12-08T01:45:41;0.40;99.90
21033;DHT22;10675;47.976;7.824;2022-12-08T01:48:10;0.40;99.90
21033;DHT22;10675;47.976;7.824;2022-12-08T01:50:39;0.40;99.90
21033;DHT22;10675;47.976;7.824;2022-12-08T01:53:38;0.40;99.90
21033;DHT22;10675;47.976;7.824;2022-12-08T01:56:14;0.40;99.90
21033;DHT22;10675;47.976;7.824;2022-12-08T01:58:46;0.40;99.90
21033;DHT22;10675;47.976;7.824;2022-12-08T02:01:13;0.40;99.90
21033;DHT22;10675;47.976;7.824;2022-12-08T02:03:59;0.30;99.90
21033;DHT22;10675;47.976;7.824;2022-12-08T02:06:27;0.40;99.90
21033;DHT22;10675;47.976;7.824;2022-12-08T02:08:55;0.30;99.90
21033;DHT22;10675;47.976;7.824;2022-12-08T02:11:21;0.30;99.90
21033;DHT22;10675;47.976;7.824;2022-12-08T02:13:47;0.20;99.90
21033;DHT22;10675;47.976;7.824;2022-12-08T02:21:50;0.20;99.90
21033;DHT22;10675;47.976;7.824;2022-12-08T02:27:21;0.10;99.90
21033;DHT22;10675;47.976;7.824;2022-12-08T02:30:05;0.00;99.90
21033;DHT22;10675;47.976;7.824;2022-12-08T02:35:58;0.00;99.90
21033;DHT22;10675;47.976;7.824;2022-12-08T02:38:38;0.10;99.90
21033;DHT22;10675;47.976;7.824;2022-12-08T02:41:26;0.00;99.90
21033;DHT22;10675;47.976;7.824;2022-12-08T02:44:22;0.00;99.90
21033;DHT22;10675;47.976;7.824;2022-12-08T02:47:13;0.00;99.90
21033;DHT22;10675;47.976;7.824;2022-12-08T02:49:40;0.00;99.90
21033;DHT22;10675;47.976;7.824;2022-12-08T02:54:39;-0.10;99.90
21033;DHT22;10675;47.976;7.824;2022-12-08T03:00:20;-0.20;99.90
21033;DHT22;10675;47.976;7.824;2022-12-08T03:02:59;-0.30;99.90
21033;DHT22;10675;47.976;7.824;2022-12-08T03:08:40;-0.20;99.90
21033;DHT22;10675;47.976;7.824;2022-12-08T03:13:42;-0.30;99.90
21033;DHT22;10675;47.976;7.824;2022-12-08T03:16:11;-0.30;99.90
21033;DHT22;10675;47.976;7.824;2022-12-08T03:18:44;-0.40;99.90
21033;DHT22;10675;47.976;7.824;2022-12-08T03:21:13;-0.40;99.90
21033;DHT22;10675;47.976;7.824;2022-12-08T03:23:41;-0.40;99.90
21033;DHT22;10675;47.976;7.824;2022-12-08T03:26:17;-0.30;99.90
21033;DHT22;10675;47.976;7.824;2022-12-08T03:28:44;-0.40;99.90
21033;DHT22;10675;47.976;7.824;2022-12-08T03:31:12;-0.40;99.90
21033;DHT22;10675;47.976;7.824;2022-12-08T03:33:41;-0.40;99.90
21033;DHT22;10675;47.976;7.824;2022-12-08T03:36:08;-0.30;99.90
21033;DHT22;10675;47.976;7.824;2022-12-08T03:38:40;-0.30;99.90
21033;DHT22;10675;47.976;7.824;2022-12-08T03:41:06;-0.30;99.90
21033;DHT22;10675;47.976;7.824;2022-12-08T03:44:01;-0.40;99.90
21033;DHT22;10675;47.976;7.824;2022-12-08T03:46:29;-0.30;99.90
21033;DHT22;10675;47.976;7.824;2022-12-08T03:48:55;-0.50;99.90
21033;DHT22;10675;47.976;7.824;2022-12-08T03:51:21;-0.40;99.90
21033;DHT22;10675;47.976;7.824;2022-12-08T03:53:47;-0.40;99.90
21033;DHT22;10675;47.976;7.824;2022-12-08T03:56:29;-0.40;99.90
21033;DHT22;10675;47.976;7.824;2022-12-08T03:58:55;-0.20;99.90
21033;DHT22;10675;47.976;7.824;2022-12-08T04:01:21;-0.30;99.90
21033;DHT22;10675;47.976;7.824;2022-12-08T04:03:47;-0.20;99.90
21033;DHT22;10675;47.976;7.824;2022-12-08T04:06:13;-0.20;99.90
21033;DHT22;10675;47.976;7.824;2022-12-08T04:08:39;-0.10;99.90
21033;DHT22;10675;47.976;7.824;2022-12-08T04:11:04;0.00;99.90
21033;DHT22;10675;47.976;7.824;2022-12-08T04:13:34;0.10;99.90
21033;DHT22;10675;47.976;7.824;2022-12-08T04:16:00;0.10;99.90
21033;DHT22;10675;47.976;7.824;2022-12-08T04:18:26;0.00;99.90
21033;DHT22;10675;47.976;7.824;2022-12-08T04:20:51;-0.10;99.90
21033;DHT22;10675;47.976;7.824;2022-12-08T04:23:17;-0.10;99.90
21033;DHT22;10675;47.976;7.824;2022-12-08T04:25:43;0.00;99.90
21033;DHT22;10675;47.976;7.824;2022-12-08T04:28:08;0.10;99.90
21033;DHT22;10675;47.976;7.824;2022-12-08T04:30:34;0.00;99.90
21033;DHT22;10675;47.976;7.824;2022-12-08T04:33:00;0.10;99.90
21033;DHT22;10675;47.976;7.824;2022-12-08T04:35:26;-0.10;99.90
21033;DHT22;10675;47.976;7.824;2022-12-08T04:37:52;-0.10;99.90
21033;DHT22;10675;47.976;7.824;2022-12-08T04:40:17;-0.10;99.90
21033;DHT22;10675;47.976;7.824;2022-12-08T04:42:43;-0.10;99.90
21033;DHT22;10675;47.976;7.824;2022-12-08T04:45:09;-0.20;99.90
21033;DHT22;10675;47.976;7.824;2022-12-08T04:47:35;-0.10;99.90
21033;DHT22;10675;47.976;7.824;2022-12-08T04:50:01;-0.20;99.90
21033;DHT22;10675;47.976;7.824;2022-12-08T04:52:27;-0.30;99.90
21033;DHT22;10675;47.976;7.824;2022-12-08T04:54:52;-0.20;99.90
21033;DHT22;10675;47.976;7.824;2022-12-08T04:57:18;-0.20;99.90
21033;DHT22;10675;47.976;7.824;2022-12-08T04:59:44;-0.20;99.90
21033;DHT22;10675;47.976;7.824;2022-12-08T05:02:09;-0.30;99.90
21033;DHT22;10675;47.976;7.824;2022-12-08T05:04:35;-0.20;99.90
21033;DHT22;10675;47.976;7.824;2022-12-08T05:07:00;-0.30;99.90
21033;DHT22;10675;47.976;7.824;2022-12-08T05:09:26;-0.40;99.90
21033;DHT22;10675;47.976;7.824;2022-12-08T05:11:52;-0.30;99.90
21033;DHT22;10675;47.976;7.824;2022-12-08T05:14:18;-0.50;99.90
21033;DHT22;10675;47.976;7.824;2022-12-08T05:16:44;-0.60;99.90
21033;DHT22;10675;47.976;7.824;2022-12-08T05:19:10;-0.50;99.90
21033;DHT22;10675;47.976;7.824;2022-12-08T05:21:35;-0.50;99.90
21033;DHT22;10675;47.976;7.824;2022-12-08T05:24:01;-0.40;99.90
21033;DHT22;10675;47.976;7.824;2022-12-08T05:26:27;-0.30;99.90
21033;DHT22;10675;47.976;7.824;2022-12-08T05:28:52;-0.40;99.90
21033;DHT22;10675;47.976;7.824;2022-12-08T05:31:18;-0.50;99.90
21033;DHT22;10675;47.976;7.824;2022-12-08T05:33:44;-0.60;99.90
21033;DHT22;10675;47.976;7.824;2022-12-08T05:36:12;-0.60;99.90
21033;DHT22;10675;47.976;7.824;2022-12-08T05:38:39;-0.50;99.90
21033;DHT22;10675;47.976;7.824;2022-12-08T05:41:06;-0.60;99.90
21033;DHT22;10675;47.976;7.824;2022-12-08T05:43:32;-0.60;99.90
21033;DHT22;10675;47.976;7.824;2022-12-08T05:45:58;-0.60;99.90
21033;DHT22;10675;47.976;7.824;2022-12-08T05:48:24;-0.60;99.90
21033;DHT22;10675;47.976;7.824;2022-12-08T05:50:50;-0.70;99.90
21033;DHT22;10675;47.976;7.824;2022-12-08T05:53:17;-0.80;99.90
21033;DHT22;10675;47.976;7.824;2022-12-08T05:55:43;-0.80;99.90
21033;DHT22;10675;47.976;7.824;2022-12-08T05:58:14;-0.80;99.90
21033;DHT22;10675;47.976;7.824;2022-12-08T06:00:40;-0.70;99.90
21033;DHT22;10675;47.976;7.824;2022-12-08T06:03:06;-1.00;99.90
21033;DHT22;10675;47.976;7.824;2022-12-08T06:05:33;-0.80;99.90
21033;DHT22;10675;47.976;7.824;2022-12-08T06:07:59;-0.70;99.90
21033;DHT22;10675;47.976;7.824;2022-12-08T06:10:25;-0.90;99.90
21033;DHT22;10675;47.976;7.824;2022-12-08T06:12:50;-0.90;99.90
21033;DHT22;10675;47.976;7.824;2022-12-08T06:15:17;-0.80;99.90
21033;DHT22;10675;47.976;7.824;2022-12-08T06:17:43;-0.80;99.90
21033;DHT22;10675;47.976;7.824;2022-12-08T06:20:08;-0.70;99.90
21033;DHT22;10675;47.976;7.824;2022-12-08T06:22:34;-0.80;99.90
21033;DHT22;10675;47.976;7.824;2022-12-08T06:25:00;-0.80;99.90
21033;DHT22;10675;47.976;7.824;2022-12-08T06:27:26;-0.80;99.90
21033;DHT22;10675;47.976;7.824;2022-12-08T06:29:51;-0.70;99.90
21033;DHT22;10675;47.976;7.824;2022-12-08T06:32:17;-0.50;99.90
21033;DHT22;10675;47.976;7.824;2022-12-08T06:34:43;-0.50;99.90
21033;DHT22;10675;47.976;7.824;2022-12-08T06:37:08;-0.40;99.90
21033;DHT22;10675;47.976;7.824;2022-12-08T06:39:34;-0.60;99.90
21033;DHT22;10675;47.976;7.824;2022-12-08T06:42:00;-0.60;99.90
21033;DHT22;10675;47.976;7.824;2022-12-08T06:44:44;-0.60;99.90
21033;DHT22;10675;47.976;7.824;2022-12-08T06:47:09;-0.60;99.90
21033;DHT22;10675;47.976;7.824;2022-12-08T06:49:35;-0.50;99.90
21033;DHT22;10675;47.976;7.824;2022-12-08T06:52:00;-0.40;99.90
21033;DHT22;10675;47.976;7.824;2022-12-08T06:54:26;-0.30;99.90
21033;DHT22;10675;47.976;7.824;2022-12-08T06:56:52;-0.30;99.90
21033;DHT22;10675;47.976;7.824;2022-12-08T06:59:17;-0.30;99.90
21033;DHT22;10675;47.976;7.824;2022-12-08T07:01:44;-0.20;99.90
21033;DHT22;10675;47.976;7.824;2022-12-08T07:04:10;-0.30;99.90
21033;DHT22;10675;47.976;7.824;2022-12-08T07:06:35;-0.20;99.90
21033;DHT22;10675;47.976;7.824;2022-12-08T07:09:01;-0.20;99.90
21033;DHT22;10675;47.976;7.824;2022-12-08T07:11:27;-0.10;99.90
21033;DHT22;10675;47.976;7.824;2022-12-08T07:13:55;-0.10;99.90
21033;DHT22;10675;47.976;7.824;2022-12-08T07:16:21;-0.10;99.90
21033;DHT22;10675;47.976;7.824;2022-12-08T07:18:47;-0.10;99.90
21033;DHT22;10675;47.976;7.824;2022-12-08T07:21:13;0.30;99.90
21033;DHT22;10675;47.976;7.824;2022-12-08T07:23:40;0.40;99.90
21033;DHT22;10675;47.976;7.824;2022-12-08T07:26:07;0.20;99.90
21033;DHT22;10675;47.976;7.824;2022-12-08T07:28:35;0.10;99.90
21033;DHT22;10675;47.976;7.824;2022-12-08T07:31:02;-0.10;99.90
21033;DHT22;10675;47.976;7.824;2022-12-08T07:33:27;-0.10;99.90
21033;DHT22;10675;47.976;7.824;2022-12-08T07:35:58;-0.10;99.90
21033;DHT22;10675;47.976;7.824;2022-12-08T07:38:24;-0.10;99.90
21033;DHT22;10675;47.976;7.824;2022-12-08T07:40:50;-0.10;99.90
21033;DHT22;10675;47.976;7.824;2022-12-08T07:43:16;-0.10;99.90
21033;DHT22;10675;47.976;7.824;2022-12-08T07:45:41;-0.10;99.90
21033;DHT22;10675;47.976;7.824;2022-12-08T07:48:07;0.10;99.90
21033;DHT22;10675;47.976;7.824;2022-12-08T07:50:33;0.00;99.90
21033;DHT22;10675;47.976;7.824;2022-12-08T07:53:00;0.00;99.90
21033;DHT22;10675;47.976;7.824;2022-12-08T07:55:25;0.00;99.90
21033;DHT22;10675;47.976;7.824;2022-12-08T07:57:51;-0.10;99.90
21033;DHT22;10675;47.976;7.824;2022-12-08T08:00:18;0.20;99.90
21033;DHT22;10675;47.976;7.824;2022-12-08T08:02:44;0.10;99.90
21033;DHT22;10675;47.976;7.824;2022-12-08T08:05:10;0.00;99.90
21033;DHT22;10675;47.976;7.824;2022-12-08T08:07:40;0.00;99.90
21033;DHT22;10675;47.976;7.824;2022-12-08T08:10:10;0.00;99.90
21033;DHT22;10675;47.976;7.824;2022-12-08T08:12:36;0.10;99.90
21033;DHT22;10675;47.976;7.824;2022-12-08T08:15:04;0.20;99.90
21033;DHT22;10675;47.976;7.824;2022-12-08T08:17:31;0.40;99.90
21033;DHT22;10675;47.976;7.824;2022-12-08T08:19:57;0.40;99.90
21033;DHT22;10675;47.976;7.824;2022-12-08T08:22:24;3.10;99.90
21033;DHT22;10675;47.976;7.824;2022-12-08T08:24:50;5.50;99.90
21033;DHT22;10675;47.976;7.824;2022-12-08T08:27:15;2.40;99.90
21033;DHT22;10675;47.976;7.824;2022-12-08T08:29:41;1.30;99.90
21033;DHT22;10675;47.976;7.824;2022-12-08T08:32:07;0.80;99.90
21033;DHT22;10675;47.976;7.824;2022-12-08T08:34:32;0.60;99.90
21033;DHT22;10675;47.976;7.824;2022-12-08T08:36:58;0.70;99.90
21033;DHT22;10675;47.976;7.824;2022-12-08T08:39:23;0.70;99.90
21033;DHT22;10675;47.976;7.824;2022-12-08T08:41:49;0.90;99.90
21033;DHT22;10675;47.976;7.824;2022-12-08T08:44:14;0.80;99.90
21033;DHT22;10675;47.976;7.824;2022-12-08T08:46:40;0.80;99.90
21033;DHT22;10675;47.976;7.824;2022-12-08T08:49:06;1.00;99.90
21033;DHT22;10675;47.976;7.824;2022-12-08T08:51:31;0.90;99.90
21033;DHT22;10675;47.976;7.824;2022-12-08T08:53:57;1.10;99.90
21033;DHT22;10675;47.976;7.824;2022-12-08T08:56:24;1.20;99.90
21033;DHT22;10675;47.976;7.824;2022-12-08T08:58:51;1.30;99.90
21033;DHT22;10675;47.976;7.824;2022-12-08T09:01:19;1.50;99.90
21033;DHT22;10675;47.976;7.824;2022-12-08T09:03:46;1.50;99.90
21033;DHT22;10675;47.976;7.824;2022-12-08T09:06:13;1.60;99.90
21033;DHT22;10675;47.976;7.824;2022-12-08T09:08:39;1.70;99.90
21033;DHT22;10675;47.976;7.824;2022-12-08T09:11:06;1.90;99.90
21033;DHT22;10675;47.976;7.824;2022-12-08T09:13:31;1.90;99.90
21033;DHT22;10675;47.976;7.824;2022-12-08T09:15:59;2.00;99.90
21033;DHT22;10675;47.976;7.824;2022-12-08T09:18:26;2.10;99.90
21033;DHT22;10675;47.976;7.824;2022-12-08T09:20:52;2.10;99.90
21033;DHT22;10675;47.976;7.824;2022-12-08T09:23:17;2.20;99.90
21033;DHT22;10675;47.976;7.824;2022-12-08T09:25:43;2.10;99.90
21033;DHT22;10675;47.976;7.824;2022-12-08T09:28:10;2.80;99.90
21033;DHT22;10675;47.976;7.824;2022-12-08T09:30:35;2.60;99.90
21033;DHT22;10675;47.976;7.824;2022-12-08T09:33:01;2.30;99.90
21033;DHT22;10675;47.976;7.824;2022-12-08T09:35:26;2.00;99.90
21033;DHT22;10675;47.976;7.824;2022-12-08T09:37:52;1.90;99.90
21033;DHT22;10675;47.976;7.824;2022-12-08T09:40:19;1.90;99.90
21033;DHT22;10675;47.976;7.824;2022-12-08T09:42:49;2.00;99.90
21033;DHT22;10675;47.976;7.824;2022-12-08T09:45:17;2.20;99.90
21033;DHT22;10675;47.976;7.824;2022-12-08T09:48:09;2.10;99.90
21033;DHT22;10675;47.976;7.824;2022-12-08T09:50:40;1.80;99.90
21033;DHT22;10675;47.976;7.824;2022-12-08T09:53:28;1.80;99.90
21033;DHT22;10675;47.976;7.824;2022-12-08T09:56:05;1.60;99.90
21033;DHT22;10675;47.976;7.824;2022-12-08T10:01:31;1.80;99.90
21033;DHT22;10675;47.976;7.824;2022-12-08T10:03:57;1.70;99.90
21033;DHT22;10675;47.976;7.824;2022-12-08T10:07:24;1.50;99.90
21033;DHT22;10675;47.976;7.824;2022-12-08T10:14:45;1.60;99.90
21033;DHT22;10675;47.976;7.824;2022-12-08T10:17:19;1.50;99.90
21033;DHT22;10675;47.976;7.824;2022-12-08T10:19:47;1.50;99.90
21033;DHT22;10675;47.976;7.824;2022-12-08T10:25:00;1.60;99.90
21033;DHT22;10675;47.976;7.824;2022-12-08T10:27:29;2.40;99.90
21033;DHT22;10675;47.976;7.824;2022-12-08T10:29:55;3.20;99.90
21033;DHT22;10675;47.976;7.824;2022-12-08T10:32:22;1.80;99.90
21033;DHT22;10675;47.976;7.824;2022-12-08T10:37:32;1.60;99.90
21033;DHT22;10675;47.976;7.824;2022-12-08T10:40:13;1.20;99.90
21033;DHT22;10675;47.976;7.824;2022-12-08T10:42:49;1.00;99.90
21033;DHT22;10675;47.976;7.824;2022-12-08T10:45:25;1.20;99.90
21033;DHT22;10675;47.976;7.824;2022-12-08T10:48:24;1.30;99.90
21033;DHT22;10675;47.976;7.824;2022-12-08T10:53:23;1.40;99.90
21033;DHT22;10675;47.976;7.824;2022-12-08T10:55:50;1.60;99.90
21033;DHT22;10675;47.976;7.824;2022-12-08T11:01:14;1.50;99.90
21033;DHT22;10675;47.976;7.824;2022-12-08T11:03:51;1.20;99.90
21033;DHT22;10675;47.976;7.824;2022-12-08T11:06:36;1.10;99.90
21033;DHT22;10675;47.976;7.824;2022-12-08T11:11:57;0.90;99.90
21033;DHT22;10675;47.976;7.824;2022-12-08T11:14:47;0.90;99.90
21033;DHT22;10675;47.976;7.824;2022-12-08T11:17:27;1.00;99.90
21033;DHT22;10675;47.976;7.824;2022-12-08T11:22:30;1.00;99.90
21033;DHT22;10675;47.976;7.824;2022-12-08T11:25:19;1.10;99.90
21033;DHT22;10675;47.976;7.824;2022-12-08T11:27:49;0.80;99.90
21033;DHT22;10675;47.976;7.824;2022-12-08T11:30:24;0.90;99.90
21033;DHT22;10675;47.976;7.824;2022-12-08T11:32:55;0.90;99.90
21033;DHT22;10675;47.976;7.824;2022-12-08T11:38:14;1.00;99.90
21033;DHT22;10675;47.976;7.824;2022-12-08T11:40:42;0.90;99.90
21033;DHT22;10675;47.976;7.824;2022-12-08T11:43:20;0.90;99.90
21033;DHT22;10675;47.976;7.824;2022-12-08T11:45:50;1.00;99.90
21033;DHT22;10675;47.976;7.824;2022-12-08T11:48:20;1.00;99.90
21033;DHT22;10675;47.976;7.824;2022-12-08T11:50:56;1.10;99.90
21033;DHT22;10675;47.976;7.824;2022-12-08T11:53:39;1.30;99.90
21033;DHT22;10675;47.976;7.824;2022-12-08T11:56:20;1.40;99.90
21033;DHT22;10675;47.976;7.824;2022-12-08T11:58:55;1.50;99.90
21033;DHT22;10675;47.976;7.824;2022-12-08T12:01:24;1.70;99.90
21033;DHT22;10675;47.976;7.824;2022-12-08T12:09:17;1.90;99.90
21033;DHT22;10675;47.976;7.824;2022-12-08T12:12:16;2.10;99.90
21033;DHT22;10675;47.976;7.824;2022-12-08T12:19:58;4.80;99.90
21033;DHT22;10675;47.976;7.824;2022-12-08T12:22:31;3.20;99.90
21033;DHT22;10675;47.976;7.824;2022-12-08T12:24:57;2.80;99.90
21033;DHT22;10675;47.976;7.824;2022-12-08T12:27:43;2.50;99.90
21033;DHT22;10675;47.976;7.824;2022-12-08T12:30:20;2.10;99.90
21033;DHT22;10675;47.976;7.824;2022-12-08T12:35:40;2.20;99.90
21033;DHT22;10675;47.976;7.824;2022-12-08T12:38:26;2.20;99.90
21033;DHT22;10675;47.976;7.824;2022-12-08T12:41:14;2.40;99.90
21033;DHT22;10675;47.976;7.824;2022-12-08T12:46:41;2.20;99.90
21033;DHT22;10675;47.976;7.824;2022-12-08T12:57:21;2.20;99.90
21033;DHT22;10675;47.976;7.824;2022-12-08T13:00:07;2.20;99.90
21033;DHT22;10675;47.976;7.824;2022-12-08T13:02:38;2.30;99.90
21033;DHT22;10675;47.976;7.824;2022-12-08T13:05:25;2.20;99.90
21033;DHT22;10675;47.976;7.824;2022-12-08T13:08:19;2.30;99.90
21033;DHT22;10675;47.976;7.824;2022-12-08T13:10:59;2.30;99.90
21033;DHT22;10675;47.976;7.824;2022-12-08T13:13:26;2.30;99.90
21033;DHT22;10675;47.976;7.824;2022-12-08T13:16:16;2.50;99.90
21033;DHT22;10675;47.976;7.824;2022-12-08T13:26:25;3.20;99.90
21033;DHT22;10675;47.976;7.824;2022-12-08T13:50:32;2.80;99.90
21033;DHT22;10675;47.976;7.824;2022-12-08T13:53:10;2.70;99.90
21033;DHT22;10675;47.976;7.824;2022-12-08T13:55:48;2.70;99.90
21033;DHT22;10675;47.976;7.824;2022-12-08T13:58:33;3.00;99.90
21033;DHT22;10675;47.976;7.824;2022-12-08T14:01:01;2.80;99.90
21033;DHT22;10675;47.976;7.824;2022-12-08T14:03:30;2.60;99.90
21033;DHT22;10675;47.976;7.824;2022-12-08T14:05:55;2.50;99.90
21033;DHT22;10675;47.976;7.824;2022-12-08T14:08:32;2.60;99.90
21033;DHT22;10675;47.976;7.824;2022-12-08T14:11:03;2.70;99.90
21033;DHT22;10675;47.976;7.824;2022-12-08T14:13:32;2.70;99.90
21033;DHT22;10675;47.976;7.824;2022-12-08T14:15:58;3.00;99.90
21033;DHT22;10675;47.976;7.824;2022-12-08T14:18:28;3.30;99.90
21033;DHT22;10675;47.976;7.824;2022-12-08T14:21:05;3.80;99.90
21033;DHT22;10675;47.976;7.824;2022-12-08T14:23:35;4.00;99.90
21033;DHT22;10675;47.976;7.824;2022-12-08T14:26:02;4.00;99.90
21033;DHT22;10675;47.976;7.824;2022-12-08T14:28:30;3.70;99.90
21033;DHT22;10675;47.976;7.824;2022-12-08T14:30:56;3.50;99.90
21033;DHT22;10675;47.976;7.824;2022-12-08T14:33:22;3.30;99.90
21033;DHT22;10675;47.976;7.824;2022-12-08T14:35:54;3.00;99.90
21033;DHT22;10675;47.976;7.824;2022-12-08T14:38:21;3.00;99.90
21033;DHT22;10675;47.976;7.824;2022-12-08T14:41:04;2.70;99.90
21033;DHT22;10675;47.976;7.824;2022-12-08T14:43:31;2.60;99.90
21033;DHT22;10675;47.976;7.824;2022-12-08T14:46:02;2.50;99.90
21033;DHT22;10675;47.976;7.824;2022-12-08T14:51:30;2.40;99.90
21033;DHT22;10675;47.976;7.824;2022-12-08T14:54:08;2.40;99.90
21033;DHT22;10675;47.976;7.824;2022-12-08T14:56:51;2.30;99.90
21033;DHT22;10675;47.976;7.824;2022-12-08T14:59:21;2.20;99.90
21033;DHT22;10675;47.976;7.824;2022-12-08T15:01:51;2.00;99.90
21033;DHT22;10675;47.976;7.824;2022-12-08T15:04:22;2.10;99.90
21033;DHT22;10675;47.976;7.824;2022-12-08T15:07:08;2.10;99.90
21033;DHT22;10675;47.976;7.824;2022-12-08T15:09:36;2.10;99.90
21033;DHT22;10675;47.976;7.824;2022-12-08T15:14:52;2.00;99.90
21033;DHT22;10675;47.976;7.824;2022-12-08T15:17:51;1.90;99.90
21033;DHT22;10675;47.976;7.824;2022-12-08T15:20:43;1.90;99.90
21033;DHT22;10675;47.976;7.824;2022-12-08T15:23:29;1.80;99.90
21033;DHT22;10675;47.976;7.824;2022-12-08T15:25:57;1.80;99.90
21033;DHT22;10675;47.976;7.824;2022-12-08T15:28:26;1.90;99.90
21033;DHT22;10675;47.976;7.824;2022-12-08T15:30:53;1.30;99.90
21033;DHT22;10675;47.976;7.824;2022-12-08T15:33:19;1.50;99.90
21033;DHT22;10675;47.976;7.824;2022-12-08T15:35:48;1.60;99.90
21033;DHT22;10675;47.976;7.824;2022-12-08T15:38:26;1.50;99.90
21033;DHT22;10675;47.976;7.824;2022-12-08T15:40:53;1.50;99.90
21033;DHT22;10675;47.976;7.824;2022-12-08T15:43:20;1.50;99.90
21033;DHT22;10675;47.976;7.824;2022-12-08T15:45:46;1.40;99.90
21033;DHT22;10675;47.976;7.824;2022-12-08T15:48:23;1.30;99.90
21033;DHT22;10675;47.976;7.824;2022-12-08T15:50:50;1.30;99.90
21033;DHT22;10675;47.976;7.824;2022-12-08T15:53:16;1.10;99.90
21033;DHT22;10675;47.976;7.824;2022-12-08T15:55:42;1.10;99.90
21033;DHT22;10675;47.976;7.824;2022-12-08T15:58:18;1.00;99.90
21033;DHT22;10675;47.976;7.824;2022-12-08T16:00:44;1.10;99.90
21033;DHT22;10675;47.976;7.824;2022-12-08T16:03:22;1.20;99.90
21033;DHT22;10675;47.976;7.824;2022-12-08T16:09:43;1.00;99.90
21033;DHT22;10675;47.976;7.824;2022-12-08T16:26:13;0.80;99.90
21033;DHT22;10675;47.976;7.824;2022-12-08T16:40:45;0.70;99.90
21033;DHT22;10675;47.976;7.824;2022-12-08T16:43:31;0.60;99.90
21033;DHT22;10675;47.976;7.824;2022-12-08T16:45:57;0.60;99.90
21033;DHT22;10675;47.976;7.824;2022-12-08T16:48:23;0.60;99.90
21033;DHT22;10675;47.976;7.824;2022-12-08T16:53:21;0.60;99.90
21033;DHT22;10675;47.976;7.824;2022-12-08T16:55:47;0.60;99.90
21033;DHT22;10675;47.976;7.824;2022-12-08T16:58:14;0.60;99.90
21033;DHT22;10675;47.976;7.824;2022-12-08T17:00:40;0.60;99.90
21033;DHT22;10675;47.976;7.824;2022-12-08T17:03:06;0.50;99.90
21033;DHT22;10675;47.976;7.824;2022-12-08T17:05:33;0.50;99.90
21033;DHT22;10675;47.976;7.824;2022-12-08T17:07:59;0.50;99.90
21033;DHT22;10675;47.976;7.824;2022-12-08T17:10:27;0.60;99.90
21033;DHT22;10675;47.976;7.824;2022-12-08T17:12:54;0.60;99.90
21033;DHT22;10675;47.976;7.824;2022-12-08T17:15:23;0.50;99.90
21033;DHT22;10675;47.976;7.824;2022-12-08T17:17:48;0.50;99.90
21033;DHT22;10675;47.976;7.824;2022-12-08T17:20:17;0.40;99.90
21033;DHT22;10675;47.976;7.824;2022-12-08T17:22:43;0.40;99.90
21033;DHT22;10675;47.976;7.824;2022-12-08T17:25:09;0.40;99.90
21033;DHT22;10675;47.976;7.824;2022-12-08T17:27:35;0.20;99.90
21033;DHT22;10675;47.976;7.824;2022-12-08T17:30:01;0.20;99.90
21033;DHT22;10675;47.976;7.824;2022-12-08T17:32:27;0.30;99.90
21033;DHT22;10675;47.976;7.824;2022-12-08T17:34:53;0.30;99.90
21033;DHT22;10675;47.976;7.824;2022-12-08T17:37:18;0.30;99.90
21033;DHT22;10675;47.976;7.824;2022-12-08T17:39:44;0.30;99.90
21033;DHT22;10675;47.976;7.824;2022-12-08T17:42:10;0.30;99.90
21033;DHT22;10675;47.976;7.824;2022-12-08T17:44:36;0.30;99.90
21033;DHT22;10675;47.976;7.824;2022-12-08T17:47:02;0.20;99.90
21033;DHT22;10675;47.976;7.824;2022-12-08T17:49:29;0.40;99.90
21033;DHT22;10675;47.976;7.824;2022-12-08T17:51:58;0.20;99.90
21033;DHT22;10675;47.976;7.824;2022-12-08T17:54:24;-0.10;99.90
21033;DHT22;10675;47.976;7.824;2022-12-08T17:56:50;0.40;99.90
21033;DHT22;10675;47.976;7.824;2022-12-08T17:59:16;-0.20;99.90
21033;DHT22;10675;47.976;7.824;2022-12-08T18:01:42;-0.20;99.90
21033;DHT22;10675;47.976;7.824;2022-12-08T18:04:09;-0.30;99.90
21033;DHT22;10675;47.976;7.824;2022-12-08T18:06:36;-0.20;99.90
21033;DHT22;10675;47.976;7.824;2022-12-08T18:09:03;-0.20;99.90
21033;DHT22;10675;47.976;7.824;2022-12-08T18:11:31;-0.20;99.90
21033;DHT22;10675;47.976;7.824;2022-12-08T18:13:56;-0.10;99.90
21033;DHT22;10675;47.976;7.824;2022-12-08T18:16:24;-0.20;99.90
21033;DHT22;10675;47.976;7.824;2022-12-08T18:18:50;-0.30;99.90
21033;DHT22;10675;47.976;7.824;2022-12-08T18:21:16;-0.20;99.90